Time;durP1;ratioP1;P1;durP2;ratioP2;P2;SDS_P1;SDS_P2;PMS_P1;PMS_P2;Temp;Humidity;BMP_temperature;BMP_pressure;BME280_temperature;BME280_humidity;BME280_pressure;Samples;Min_cycle;Max_cycle;Signal;HPM_P1;HPM_P2
2021/05/18 00:01:45;;;;;;;15.02;5.90;;;;;;;22.11;35.52;99027.75;4947320;29;20198;-59
2021/05/18 00:04:11;;;;;;;14.98;5.88;;;;;;;22.01;35.36;99026.81;4947812;29;20043;-58
2021/05/18 00:06:37;;;;;;;17.20;5.82;;;;;;;22.03;35.78;99031.00;4947712;29;20031;-58
2021/05/18 00:11:49;;;;;;;11.65;5.22;;;;;;;21.94;35.65;99028.25;4947881;29;20027;-58
2021/05/18 00:14:19;;;;;;;15.00;6.18;;;;;;;21.86;35.86;99021.81;4947084;29;20032;-57
2021/05/18 00:16:45;;;;;;;19.92;5.63;;;;;;;21.95;35.67;99024.66;4947536;29;20071;-58
2021/05/18 00:19:11;;;;;;;11.45;5.45;;;;;;;21.85;35.65;99025.38;4947547;29;20035;-59
2021/05/18 00:21:38;;;;;;;20.67;6.32;;;;;;;21.81;36.24;99026.59;4947347;29;20036;-59
2021/05/18 00:24:05;;;;;;;15.60;5.70;;;;;;;21.75;36.31;99024.44;4947634;29;20047;-60
2021/05/18 00:26:31;;;;;;;16.27;6.07;;;;;;;21.74;36.33;99022.75;4947280;29;20327;-60
2021/05/18 00:29:02;;;;;;;;;;;;;;;21.77;36.71;99027.78;4947975;29;20035;-60
2021/05/18 00:31:28;;;;;;;15.70;6.25;;;;;;;21.61;36.84;99022.06;4947153;29;19914;-60
2021/05/18 00:33:54;;;;;;;12.48;5.70;;;;;;;21.73;37.38;99018.44;4947376;29;20099;-60
2021/05/18 00:36:20;;;;;;;16.50;6.05;;;;;;;21.73;37.58;99015.81;4947349;29;20035;-58
2021/05/18 00:38:45;;;;;;;14.50;5.90;;;;;;;21.62;36.53;99015.81;4947375;29;20027;-58
2021/05/18 00:41:12;;;;;;;17.98;6.00;;;;;;;21.53;36.83;99020.00;4947055;29;20205;-57
2021/05/18 00:43:39;;;;;;;14.75;6.00;;;;;;;21.45;38.21;99006.53;4947164;29;20032;-58
2021/05/18 00:46:05;;;;;;;16.90;5.95;;;;;;;21.62;37.50;99023.72;4946663;29;20027;-57
2021/05/18 00:48:31;;;;;;;17.77;6.00;;;;;;;21.54;38.27;99017.25;4946624;29;20311;-58
2021/05/18 00:51:01;;;;;;;11.73;5.78;;;;;;;21.57;37.71;99034.63;4947021;29;20031;-58
2021/05/18 00:53:27;;;;;;;15.30;5.97;;;;;;;21.34;38.36;99004.75;4946938;29;20027;-58
2021/05/18 00:56:01;;;;;;;14.10;5.82;;;;;;;21.55;38.36;99021.56;4946881;29;20095;-57
2021/05/18 00:58:41;;;;;;;15.43;6.80;;;;;;;21.29;37.92;99014.81;4946615;29;20055;-57
2021/05/18 01:01:15;;;;;;;14.27;5.15;;;;;;;21.21;37.63;99016.22;4946542;28;20338;-58
2021/05/18 01:03:41;;;;;;;11.93;6.10;;;;;;;21.34;38.48;99018.75;4943954;29;20034;-57
2021/05/18 01:06:25;;;;;;;19.45;5.78;;;;;;;21.13;37.68;99004.63;4946676;29;20039;-57
2021/05/18 01:08:55;;;;;;;14.52;5.55;;;;;;;21.23;38.94;99020.56;4946673;29;20052;-59
2021/05/18 01:11:31;;;;;;;18.17;6.13;;;;;;;21.18;38.06;99019.09;4946288;29;20091;-58
2021/05/18 01:14:04;;;;;;;15.00;6.47;;;;;;;20.85;39.06;98968.06;4946563;29;20071;-59
2021/05/18 01:16:34;;;;;;;17.23;5.82;;;;;;;20.84;38.36;98971.66;4946320;29;20036;-59
2021/05/18 01:19:00;;;;;;;15.45;6.00;;;;;;;21.08;39.87;99018.13;4946078;29;20050;-60
2021/05/18 01:21:26;;;;;;;14.30;5.80;;;;;;;21.12;38.74;99024.84;4946204;29;20079;-59
2021/05/18 01:23:54;;;;;;;14.80;6.03;;;;;;;21.06;38.22;99020.03;4946180;29;20027;-59
2021/05/18 01:26:21;;;;;;;16.08;5.97;;;;;;;20.93;38.48;99024.56;4946275;29;20051;-59
2021/05/18 01:28:46;;;;;;;12.63;6.18;;;;;;;20.84;38.65;99019.03;4946061;29;20103;-59
2021/05/18 01:31:17;;;;;;;15.65;5.88;;;;;;;20.92;38.64;99021.09;4945773;29;20035;-59
2021/05/18 01:33:43;;;;;;;10.10;5.38;;;;;;;21.06;38.48;99024.47;4946250;29;20044;-58
2021/05/18 01:36:10;;;;;;;14.05;5.93;;;;;;;20.91;38.39;99023.81;4945869;29;20344;-58
2021/05/18 01:38:45;;;;;;;15.60;5.35;;;;;;;20.97;38.40;99020.75;4946211;29;20027;-59
2021/05/18 01:43:57;;;;;;;17.20;5.57;;;;;;;20.82;38.96;99038.50;4945674;29;20111;-59
2021/05/18 01:46:25;;;;;;;14.73;5.65;;;;;;;20.93;39.21;99020.13;4943276;29;20102;-59
2021/05/18 01:48:57;;;;;;;12.30;5.82;;;;;;;20.46;38.40;98991.09;4945503;29;20039;-58
2021/05/18 01:51:25;;;;;;;17.95;5.82;;;;;;;20.53;38.69;98973.91;4945656;29;20031;-58
2021/05/18 01:53:51;;;;;;;16.05;6.05;;;;;;;20.92;39.76;99025.50;4945864;29;20028;-58
2021/05/18 01:57:16;;;;;;;14.38;5.78;;;;;;;20.83;40.06;99029.66;4945550;29;20040;-58
2021/05/18 01:59:09;;;;;;;12.73;5.82;;;;;;;20.46;39.46;99022.66;4943010;29;20074;-58
2021/05/18 02:01:35;;;;;;;14.68;6.03;;;;;;;20.69;39.06;99035.94;4945210;29;20028;-59
2021/05/18 02:04:02;;;;;;;13.90;6.20;;;;;;;20.29;39.13;98999.38;4942921;29;20059;-59
2021/05/18 02:06:28;;;;;;;14.30;6.07;;;;;;;20.76;39.34;99036.34;4945506;29;20224;-58
2021/05/18 02:08:54;;;;;;;10.45;5.57;;;;;;;20.49;38.93;98998.78;4945902;29;20035;-58
2021/05/18 02:11:20;;;;;;;16.25;6.07;;;;;;;20.81;38.71;99035.03;4945222;29;20498;-57
2021/05/18 02:13:48;;;;;;;12.82;5.57;;;;;;;20.81;39.13;99036.84;4945369;29;20058;-59
2021/05/18 02:16:23;;;;;;;18.83;6.15;;;;;;;20.93;38.62;99037.72;4944324;29;20313;-59
2021/05/18 02:26:52;;;;;;;12.73;5.97;;;;;;;20.93;38.62;99040.34;4945249;29;20232;-59
2021/05/18 02:29:18;;;;;;;17.70;6.00;;;;;;;21.12;40.01;99045.06;4944052;29;20046;-58
2021/05/18 02:31:44;;;;;;;15.98;5.75;;;;;;;21.26;38.88;99044.03;4944963;29;20023;-57
2021/05/18 02:34:10;;;;;;;13.88;5.50;;;;;;;21.30;38.45;99048.09;4945099;29;20070;-58
2021/05/18 02:36:36;;;;;;;15.13;5.53;;;;;;;21.51;38.24;99054.38;4944788;29;20039;-59
2021/05/18 02:39:03;;;;;;;19.98;6.10;;;;;;;21.28;38.61;99044.75;4945138;29;20106;-57
2021/05/18 02:41:29;;;;;;;15.65;5.90;;;;;;;21.05;38.58;99007.84;4944877;29;20036;-57
2021/05/18 02:43:59;;;;;;;11.88;5.25;;;;;;;21.26;38.64;99051.91;4945119;29;20023;-57
2021/05/18 02:51:33;;;;;;;12.88;5.70;;;;;;;21.31;38.98;99050.63;4938491;29;20044;-57
2021/05/18 02:53:59;;;;;;;15.65;5.75;;;;;;;21.53;39.57;99056.91;4945094;29;20095;-57
2021/05/18 03:01:25;;;;;;;21.05;5.90;;;;;;;21.32;39.07;99044.41;4937193;29;20054;-61
2021/05/18 03:03:53;;;;;;;14.20;5.80;;;;;;;21.44;40.58;99058.41;4942144;29;20038;-60
2021/05/18 03:06:19;;;;;;;15.13;5.95;;;;;;;21.54;39.13;99063.84;4944775;29;20036;-60
2021/05/18 03:08:45;;;;;;;15.45;5.53;;;;;;;21.56;38.86;99056.66;4943531;29;20047;-60
2021/05/18 03:11:11;;;;;;;16.50;5.93;;;;;;;21.62;38.58;99061.47;4944182;29;20043;-59
2021/05/18 03:13:37;;;;;;;14.05;5.90;;;;;;;21.74;39.95;99057.03;4944838;29;20075;-61
2021/05/18 03:16:04;;;;;;;16.40;5.88;;;;;;;21.92;39.61;99060.03;4944319;29;20036;-61
2021/05/18 03:18:30;;;;;;;16.67;6.20;;;;;;;21.99;39.78;99063.00;4944059;29;20039;-60
2021/05/18 03:20:56;;;;;;;16.65;5.05;;;;;;;22.04;40.46;99039.75;4944834;29;20054;-60
2021/05/18 03:23:23;;;;;;;12.82;5.80;;;;;;;22.01;38.57;99061.94;4944141;29;20043;-58
2021/05/18 03:25:49;;;;;;;16.38;6.13;;;;;;;22.05;38.22;99068.63;4959326;29;20426;-58
2021/05/18 03:28:14;;;;;;;14.90;6.30;;;;;;;22.02;39.08;99060.16;4947000;29;20042;-58
2021/05/18 03:35:50;;;;;;;19.55;5.85;;;;;;;22.60;38.01;99061.72;4948575;29;20042;-58
2021/05/18 03:38:58;;;;;;;16.65;6.40;;;;;;;22.75;38.12;99053.38;4948280;29;20035;-58
2021/05/18 03:41:19;;;;;;;15.40;6.30;;;;;;;22.66;37.58;99053.28;4952155;28;20050;-60
2021/05/18 03:54:27;;;;;;;17.75;12.30;;;;;;;22.72;38.01;99073.91;4947746;29;20024;-60
2021/05/18 04:19:02;;;;;;;15.57;6.00;;;;;;;23.29;36.25;99047.22;4943097;29;20032;-58
2021/05/18 04:51:24;;;;;;;17.63;5.70;;;;;;;25.96;32.59;99057.75;4945977;29;20027;-60
2021/05/18 05:01:56;;;;;;;16.60;6.32;;;;;;;27.02;31.51;99050.06;4946507;29;20046;-60
2021/05/18 05:07:09;;;;;;;15.55;5.70;;;;;;;26.32;32.78;99049.91;4946218;29;20042;-59
2021/05/18 05:09:38;;;;;;;15.63;6.50;;;;;;;26.51;33.50;99051.59;4944991;29;20031;-60
2021/05/18 05:14:43;;;;;;;16.13;5.65;;;;;;;26.08;32.39;99053.13;4940062;29;20324;-61
2021/05/18 05:17:09;;;;;;;17.83;5.68;;;;;;;25.97;33.23;99047.00;4939199;29;20332;-59
2021/05/18 05:19:36;;;;;;;19.58;6.30;;;;;;;26.41;32.60;99053.47;4940036;29;20039;-60
2021/05/18 05:22:03;;;;;;;20.23;7.07;;;;;;;26.64;32.65;99044.06;4938975;29;20390;-60
2021/05/18 05:24:29;;;;;;;14.40;6.18;;;;;;;26.44;31.78;99003.56;4946226;29;20319;-60
2021/05/18 05:26:56;;;;;;;17.20;5.82;;;;;;;27.14;32.81;99040.03;4946162;29;20289;-60
2021/05/18 05:29:22;;;;;;;13.10;5.80;;;;;;;26.60;31.81;99041.88;4945668;29;20308;-60
2021/05/18 05:31:49;;;;;;;15.50;5.80;;;;;;;26.62;31.81;99051.38;4946383;29;20095;-61
2021/05/18 05:34:16;;;;;;;18.83;6.15;;;;;;;26.21;31.38;99034.19;4944169;29;20343;-60
2021/05/18 05:36:42;;;;;;;18.40;6.13;;;;;;;26.45;31.77;99041.56;4941184;29;20135;-60
2021/05/18 05:39:14;;;;;;;13.75;6.00;;;;;;;27.25;30.89;98993.72;4944562;29;20031;-60
2021/05/18 05:41:40;;;;;;;15.90;6.40;;;;;;;28.37;30.31;99039.78;4944102;29;20036;-60
2021/05/18 05:44:06;;;;;;;17.38;6.65;;;;;;;27.61;30.00;99038.84;4945385;29;20034;-62
2021/05/18 05:46:33;;;;;;;13.65;6.45;;;;;;;27.76;31.14;99043.56;4944327;29;20030;-61
2021/05/18 05:48:59;;;;;;;19.55;6.38;;;;;;;27.49;31.15;99043.59;4944131;29;20035;-60
2021/05/18 05:51:27;;;;;;;13.85;5.85;;;;;;;27.06;31.51;98999.25;4943875;28;20099;-60
2021/05/18 05:53:55;;;;;;;16.48;6.55;;;;;;;27.06;31.29;99039.13;4944111;29;20035;-60
2021/05/18 05:56:21;;;;;;;17.55;5.95;;;;;;;26.94;31.52;99042.03;4959507;29;20094;-60
2021/05/18 05:58:48;;;;;;;16.98;6.15;;;;;;;27.36;31.66;99041.38;4944536;29;20066;-60
2021/05/18 06:01:16;;;;;;;13.70;5.70;;;;;;;26.77;31.77;99029.63;4944754;29;20031;-59
2021/05/18 06:03:42;;;;;;;19.15;6.65;;;;;;;26.62;32.19;99031.94;4944030;29;20035;-59
2021/05/18 06:06:09;;;;;;;16.35;6.38;;;;;;;26.70;32.56;99030.22;4945249;29;20028;-59
2021/05/18 06:08:41;;;;;;;13.10;6.40;;;;;;;26.87;31.98;99028.50;4945051;29;20055;-60
2021/05/18 06:14:13;;;;;;;20.27;6.38;;;;;;;27.10;32.85;99024.53;4944197;29;20042;-61
2021/05/18 06:45:49;;;;;;;20.83;6.00;;;;;;;27.99;30.18;99004.75;4944545;29;20282;-60
2021/05/18 06:49:17;;;;;;;16.63;5.78;;;;;;;28.00;30.90;99002.91;4943918;29;20039;-60
2021/05/18 06:51:43;;;;;;;18.05;6.60;;;;;;;28.26;30.83;99004.63;4944506;29;20043;-60
2021/05/18 06:54:09;;;;;;;19.63;5.63;;;;;;;28.00;30.54;99010.91;4942979;29;20075;-61
2021/05/18 06:56:37;;;;;;;17.58;6.95;;;;;;;27.91;29.05;99007.34;4943547;29;20038;-61
2021/05/18 07:01:29;;;;;;;13.20;5.82;;;;;;;28.51;29.87;99008.16;4944524;29;20232;-60
2021/05/18 07:04:00;;;;;;;20.98;6.43;;;;;;;28.46;29.03;99011.34;4944511;29;20099;-60
2021/05/18 07:09:04;;;;;;;13.23;5.75;;;;;;;28.66;29.39;99009.22;4944577;29;20087;-61
2021/05/18 07:11:30;;;;;;;20.45;5.47;;;;;;;28.54;29.42;99000.66;4944262;29;20032;-61
2021/05/18 07:13:56;;;;;;;18.40;6.43;;;;;;;28.47;29.52;99010.31;4943265;29;20036;-60
2021/05/18 07:16:22;;;;;;;19.95;6.22;;;;;;;28.43;30.10;99008.97;4937234;29;20035;-61
2021/05/18 07:18:49;;;;;;;26.27;6.25;;;;;;;28.48;29.23;99005.84;4943551;29;20060;-60
2021/05/18 07:21:14;;;;;;;21.25;5.95;;;;;;;28.70;29.40;99015.03;4944419;29;20170;-61
2021/05/18 07:23:40;;;;;;;15.50;5.97;;;;;;;28.83;29.40;99002.03;4944300;29;20031;-61
2021/05/18 07:26:06;;;;;;;18.35;5.93;;;;;;;28.98;28.57;99012.03;4944326;29;20038;-61
2021/05/18 07:28:34;;;;;;;18.92;6.38;;;;;;;29.06;28.52;99012.00;4939344;28;20308;-61
2021/05/18 07:31:01;;;;;;;17.92;6.15;;;;;;;29.09;29.14;99011.69;4935801;29;20135;-60
2021/05/18 07:33:27;;;;;;;19.00;6.22;;;;;;;29.02;29.09;99008.84;4936606;29;20031;-61
2021/05/18 07:38:50;;;;;;;15.82;5.53;;;;;;;29.46;29.26;99004.09;4934983;29;20059;-60
2021/05/18 07:41:16;;;;;;;20.40;5.30;;;;;;;29.54;27.28;99012.91;4939704;29;20095;-61
2021/05/18 07:43:42;;;;;;;19.67;5.55;;;;;;;29.41;25.93;99005.44;4937127;29;20031;-61
2021/05/18 07:46:14;;;;;;;22.45;6.25;;;;;;;29.47;26.38;99008.44;4938703;29;20110;-60
2021/05/18 08:07:35;;;;;;;23.23;6.07;;;;;;;29.91;24.48;99003.44;4933883;28;20298;-61
2021/05/18 08:10:19;;;;;;;17.88;5.88;;;;;;;29.67;24.15;99009.69;4932395;29;20219;-61
2021/05/18 08:12:45;;;;;;;21.35;5.97;;;;;;;29.64;24.34;99007.38;4931573;29;20046;-61
2021/05/18 08:18:35;;;;;;;21.48;5.53;;;;;;;29.79;23.34;99018.97;4941462;29;20044;-61
2021/05/18 10:34:27;;;;;;;27.73;5.65;;;;;;;30.86;19.05;98960.53;4945043;29;20031;-62
2021/05/18 10:36:53;;;;;;;16.10;5.05;;;;;;;30.69;17.41;98949.16;4944413;29;20047;-63
2021/05/18 10:39:21;;;;;;;23.48;4.63;;;;;;;30.72;17.61;98954.97;4944068;29;20027;-62
2021/05/18 10:41:48;;;;;;;23.05;4.55;;;;;;;30.98;18.52;98943.84;4944741;29;20027;-62
2021/05/18 10:44:14;;;;;;;24.30;5.18;;;;;;;30.71;18.66;98942.59;4944880;29;20101;-61
2021/05/18 10:47:02;;;;;;;19.35;5.28;;;;;;;30.69;19.61;98923.25;4940374;29;20027;-61
2021/05/18 10:49:32;;;;;;;22.50;5.53;;;;;;;30.92;19.15;98938.41;4942496;29;20024;-62
2021/05/18 10:52:00;;;;;;;21.73;4.32;;;;;;;30.83;19.13;98926.09;4956012;29;20028;-61
2021/05/18 10:54:32;;;;;;;25.65;5.53;;;;;;;30.70;18.81;98891.97;4941467;29;20048;-61
2021/05/18 10:57:11;;;;;;;17.38;4.95;;;;;;;30.85;19.25;98932.94;4937534;29;20111;-59
2021/05/18 10:59:54;;;;;;;27.13;6.22;;;;;;;31.11;19.51;98926.34;4938677;29;20083;-60
2021/05/18 11:02:28;;;;;;;20.08;4.93;;;;;;;31.08;19.02;98927.53;4944298;29;20070;-61
2021/05/18 11:05:10;;;;;;;17.33;4.53;;;;;;;30.50;19.08;98891.69;4943362;29;20035;-60
2021/05/18 11:07:39;;;;;;;19.98;5.20;;;;;;;30.61;19.30;98884.06;4938580;29;20032;-60
2021/05/18 11:10:16;;;;;;;16.35;4.97;;;;;;;30.76;19.38;98918.81;4943970;29;20082;-61
2021/05/18 11:12:43;;;;;;;18.15;5.05;;;;;;;30.82;19.60;98922.63;4941739;29;20301;-61
2021/05/18 11:15:15;;;;;;;21.35;4.88;;;;;;;31.11;19.42;98916.50;4944200;29;20097;-61
2021/05/18 11:17:43;;;;;;;29.48;5.70;;;;;;;30.83;18.88;98881.50;4944240;29;20043;-59
2021/05/18 11:20:14;;;;;;;20.05;4.75;;;;;;;31.02;17.39;98911.41;4944065;29;20041;-60
2021/05/18 11:23:20;;;;;;;27.20;5.83;;;;;;;31.10;18.79;98906.78;4944296;29;20106;-61
2021/05/18 11:25:49;;;;;;;24.25;5.25;;;;;;;30.69;17.04;98919.75;4936583;29;20032;-61
2021/05/18 11:28:24;;;;;;;24.38;5.72;;;;;;;30.93;17.60;98913.31;4944178;29;20039;-60
2021/05/18 11:30:58;;;;;;;24.13;5.38;;;;;;;30.83;17.38;98907.38;4942846;29;20032;-61
2021/05/18 11:33:30;;;;;;;20.58;4.97;;;;;;;30.89;16.98;98906.69;4934084;29;20343;-61
2021/05/18 11:36:16;;;;;;;21.30;5.47;;;;;;;30.99;17.52;98886.66;4944459;29;20040;-60
2021/05/18 11:38:50;;;;;;;23.60;5.45;;;;;;;30.99;17.40;98896.53;4944364;29;20039;-61
2021/05/18 11:41:28;;;;;;;19.98;5.32;;;;;;;30.76;18.49;98835.13;4942851;29;20023;-61
2021/05/18 11:43:58;;;;;;;17.13;5.47;;;;;;;30.86;18.20;98853.56;4940083;29;20028;-61
2021/05/18 11:46:29;;;;;;;15.33;4.63;;;;;;;30.66;16.51;98839.91;4941723;29;20047;-61
2021/05/18 11:49:03;;;;;;;19.25;5.25;;;;;;;30.92;17.05;98864.34;4944751;29;20066;-62
2021/05/18 11:51:40;;;;;;;26.85;5.32;;;;;;;30.92;17.23;98879.56;4943812;29;20040;-62
2021/05/18 11:54:06;;;;;;;30.13;5.28;;;;;;;31.02;17.58;98880.13;4947846;29;20075;-61
2021/05/18 11:56:37;;;;;;;20.52;4.47;;;;;;;30.77;16.59;98885.75;4946609;29;20226;-62
2021/05/18 11:59:08;;;;;;;26.98;5.15;;;;;;;30.84;16.69;98874.28;4946066;29;20335;-61
2021/05/18 12:01:48;;;;;;;27.70;5.57;;;;;;;30.87;17.00;98865.91;4946482;29;20031;-61
2021/05/18 12:04:19;;;;;;;27.30;4.90;;;;;;;30.90;17.70;98884.25;4945161;29;20047;-61
2021/05/18 12:07:01;;;;;;;25.88;5.28;;;;;;;30.73;17.31;98876.41;4945977;29;20328;-60
2021/05/18 12:09:29;;;;;;;24.02;6.05;;;;;;;30.77;17.45;98866.16;4946054;29;20032;-62
2021/05/18 12:11:59;;;;;;;20.90;5.00;;;;;;;30.81;17.85;98873.66;4940758;29;20095;-62
2021/05/18 12:14:26;;;;;;;31.55;5.20;;;;;;;30.97;18.74;98874.50;4937927;29;20050;-61
2021/05/18 12:16:53;;;;;;;24.48;5.25;;;;;;;30.71;18.15;98875.75;4941549;29;20038;-60
2021/05/18 12:19:20;;;;;;;31.50;5.72;;;;;;;30.76;17.99;98883.25;4941852;29;20095;-61
2021/05/18 12:21:49;;;;;;;20.25;5.05;;;;;;;30.38;19.17;98833.31;4940651;28;20030;-60
2021/05/18 12:24:18;;;;;;;22.30;5.28;;;;;;;30.81;18.80;98879.00;4939095;29;20019;-61
2021/05/18 12:27:03;;;;;;;17.80;4.93;;;;;;;30.65;19.12;98865.81;4937865;29;20090;-61
2021/05/18 12:29:40;;;;;;;21.25;5.25;;;;;;;30.62;19.37;98867.00;4945345;29;20035;-61
2021/05/18 12:32:34;;;;;;;23.20;5.38;;;;;;;30.45;19.46;98836.13;4939756;29;20075;-62
2021/05/18 12:35:03;;;;;;;19.05;5.20;;;;;;;30.75;19.83;98866.34;4940568;29;20326;-61
2021/05/18 12:37:44;;;;;;;21.33;6.03;;;;;;;30.48;19.78;98840.28;4940620;29;20108;-61
2021/05/18 12:40:14;;;;;;;24.10;5.32;;;;;;;30.69;20.12;98864.44;4941744;29;20036;-61
2021/05/18 12:42:45;;;;;;;21.27;4.93;;;;;;;30.67;20.39;98871.81;4941524;28;20046;-61
2021/05/18 12:45:13;;;;;;;22.67;5.10;;;;;;;30.64;20.21;98866.81;4941014;29;20078;-60
2021/05/18 12:47:41;;;;;;;24.15;5.35;;;;;;;30.24;19.59;98824.28;4942129;29;20115;-60
2021/05/18 12:50:10;;;;;;;23.75;5.18;;;;;;;30.67;19.38;98874.50;4946094;29;20036;-61
2021/05/18 12:52:43;;;;;;;21.92;5.10;;;;;;;30.60;19.62;98865.53;4946571;29;20230;-61
2021/05/18 12:55:24;;;;;;;14.68;4.35;;;;;;;30.40;19.30;98825.94;4946229;28;20046;-60
2021/05/18 12:58:17;;;;;;;16.13;4.55;;;;;;;30.67;19.82;98869.16;4946900;29;20359;-62
2021/05/18 13:00:44;;;;;;;20.85;5.35;;;;;;;30.83;19.82;98867.28;4945801;29;20110;-62
2021/05/18 13:03:21;;;;;;;17.73;4.80;;;;;;;30.72;20.00;98860.56;4946667;29;20040;-62
2021/05/18 13:05:53;;;;;;;26.70;5.00;;;;;;;30.72;19.65;98853.38;4946679;29;20367;-62
2021/05/18 13:08:31;;;;;;;16.95;4.90;;;;;;;30.68;20.25;98853.94;4946149;28;20028;-62
2021/05/18 13:13:42;;;;;;;24.83;5.85;;;;;;;30.55;20.16;98819.81;4939846;29;20313;-62
2021/05/18 13:16:18;;;;;;;20.30;6.10;;;;;;;30.79;20.36;98848.94;4946148;29;20042;-60
2021/05/18 13:18:59;;;;;;;20.73;5.35;;;;;;;30.46;19.82;98811.88;4944505;29;20123;-61
2021/05/18 13:21:51;;;;;;;18.63;6.30;;;;;;;30.45;19.81;98804.84;4942597;29;20019;-60
2021/05/18 13:26:25;;;;;;;17.20;4.47;;;;;;;30.71;18.31;98835.66;4931746;29;20059;-61
2021/05/18 13:27:09;;;;;;;21.30;4.93;;;;;;;30.71;18.09;98851.69;4940241;29;20032;-63
2021/05/18 13:29:35;;;;;;;16.00;4.80;;;;;;;30.52;17.96;98854.94;4935460;29;20256;-60
2021/05/18 13:32:03;;;;;;;19.48;4.53;;;;;;;30.52;17.65;98847.72;4940428;29;20453;-61
2021/05/18 13:34:29;;;;;;;19.75;3.97;;;;;;;30.55;17.20;98843.88;4945336;29;20027;-61
2021/05/18 13:36:55;;;;;;;12.80;4.07;;;;;;;30.65;17.47;98849.78;4946264;28;20099;-62
2021/05/18 13:39:23;;;;;;;18.13;4.35;;;;;;;30.59;17.54;98842.50;4946008;29;20023;-61
2021/05/18 13:41:50;;;;;;;20.73;5.10;;;;;;;30.44;18.10;98843.31;4943895;29;20020;-62
2021/05/18 13:44:16;;;;;;;15.68;4.32;;;;;;;30.47;17.73;98844.75;4939118;29;20044;-61
2021/05/18 13:46:42;;;;;;;16.08;4.43;;;;;;;30.32;17.87;98831.38;4946175;29;20034;-60
2021/05/18 13:49:08;;;;;;;20.10;5.30;;;;;;;30.40;18.24;98836.63;4946028;29;20027;-61
2021/05/18 13:51:35;;;;;;;20.05;5.25;;;;;;;30.50;18.63;98848.91;4945145;29;20285;-61
2021/05/18 13:54:02;;;;;;;25.25;6.85;;;;;;;30.44;18.13;98842.47;4945950;29;20027;-62
2021/05/18 13:56:29;;;;;;;19.27;5.22;;;;;;;30.45;19.35;98839.59;4945476;29;20035;-62
2021/05/18 13:58:55;;;;;;;23.05;4.97;;;;;;;30.42;18.29;98839.13;4945707;29;20043;-61
2021/05/18 14:01:21;;;;;;;22.35;4.85;;;;;;;30.55;17.95;98839.34;4945856;29;20024;-63
2021/05/18 14:03:48;;;;;;;15.65;5.00;;;;;;;30.57;18.54;98839.16;4945639;28;20316;-62
2021/05/18 14:06:15;;;;;;;16.35;5.50;;;;;;;30.52;18.22;98833.56;4945335;29;20515;-63
2021/05/18 14:08:41;;;;;;;19.48;4.90;;;;;;;30.58;18.24;98835.47;4945633;29;20043;-63
2021/05/18 14:11:20;;;;;;;23.02;5.05;;;;;;;30.62;18.77;98828.75;4945255;29;20102;-63
2021/05/18 14:13:53;;;;;;;22.92;6.65;;;;;;;30.45;18.26;98823.56;4943973;29;20031;-63
2021/05/18 14:16:24;;;;;;;19.20;4.65;;;;;;;30.26;18.40;98794.69;4956755;29;20032;-63
2021/05/18 14:18:52;;;;;;;18.80;4.72;;;;;;;30.56;19.44;98832.16;4940632;29;20066;-64
2021/05/18 14:21:25;;;;;;;20.73;4.32;;;;;;;30.40;18.94;98825.94;4945318;29;20060;-64
2021/05/18 14:26:22;;;;;;;21.23;5.13;;;;;;;30.30;18.65;98823.53;4945164;29;20343;-63
2021/05/18 14:28:48;;;;;;;22.50;4.57;;;;;;;30.39;19.27;98820.78;4944900;29;20027;-62
2021/05/18 14:31:16;;;;;;;19.27;4.68;;;;;;;30.35;18.56;98831.00;4945011;29;20059;-64
2021/05/18 14:33:42;;;;;;;18.10;4.60;;;;;;;30.29;18.66;98816.53;4944009;29;20024;-61
2021/05/18 14:36:09;;;;;;;21.80;5.22;;;;;;;30.22;18.83;98812.91;4935960;29;20320;-62
2021/05/18 14:38:36;;;;;;;16.63;5.05;;;;;;;30.36;19.08;98824.66;4936896;29;20038;-64
2021/05/18 14:44:01;;;;;;;19.63;5.28;;;;;;;30.08;18.89;98782.50;4943767;29;20035;-64
2021/05/18 14:46:46;;;;;;;17.58;5.05;;;;;;;30.26;19.01;98792.03;4941313;29;20504;-63
2021/05/18 14:55:01;;;;;;;20.55;4.65;;;;;;;30.13;18.63;98814.84;4944713;29;20045;-62
2021/05/18 14:57:27;;;;;;;24.42;4.90;;;;;;;30.05;18.36;98820.25;4945188;29;20327;-63
2021/05/18 14:59:53;;;;;;;19.58;5.15;;;;;;;30.07;18.72;98815.56;4945059;29;20027;-62
2021/05/18 15:02:19;;;;;;;20.25;5.13;;;;;;;30.12;19.20;98810.50;4938894;29;20035;-63
2021/05/18 15:04:45;;;;;;;22.23;6.07;;;;;;;30.07;19.05;98809.38;4944575;29;20066;-63
2021/05/18 15:07:11;;;;;;;19.88;5.00;;;;;;;30.05;18.91;98808.75;4941086;29;20031;-62
2021/05/18 15:09:41;;;;;;;19.23;4.80;;;;;;;30.09;19.17;98810.03;4939419;29;20024;-62
2021/05/18 15:12:08;;;;;;;16.95;5.05;;;;;;;30.11;18.88;98808.00;4944802;29;20039;-62
2021/05/18 15:14:34;;;;;;;20.52;4.45;;;;;;;29.99;18.65;98810.28;4944607;29;20028;-62
2021/05/18 15:17:01;;;;;;;17.60;5.07;;;;;;;30.06;19.23;98810.41;4944272;29;20091;-63
2021/05/18 15:19:29;;;;;;;20.02;8.70;;;;;;;29.90;18.23;98795.34;4943769;29;20087;-62
2021/05/18 15:21:54;;;;;;;16.42;5.00;;;;;;;29.86;18.74;98802.03;4942948;29;20051;-63
2021/05/18 15:24:20;;;;;;;18.73;5.60;;;;;;;30.00;18.98;98806.63;4945549;29;20075;-63
2021/05/18 15:26:47;;;;;;;18.42;5.03;;;;;;;29.99;18.87;98810.28;4944583;29;20031;-61
2021/05/18 15:29:13;;;;;;;17.98;5.40;;;;;;;29.91;19.66;98807.69;4944532;29;20363;-62
2021/05/18 15:31:39;;;;;;;18.60;5.00;;;;;;;29.84;19.05;98804.06;4945430;29;20028;-63
2021/05/18 15:34:05;;;;;;;19.45;4.80;;;;;;;29.81;18.74;98802.56;4948196;29;20028;-63
2021/05/18 15:36:30;;;;;;;23.02;5.40;;;;;;;29.84;18.93;98804.91;4948289;29;20059;-62
2021/05/18 15:38:56;;;;;;;20.58;4.80;;;;;;;29.96;19.53;98799.97;4945226;29;20035;-64
2021/05/18 15:41:22;;;;;;;20.20;5.80;;;;;;;29.86;19.33;98799.38;4947622;29;20039;-64
2021/05/18 15:43:48;;;;;;;24.70;5.90;;;;;;;29.94;19.51;98797.50;4946945;29;20107;-64
2021/05/18 15:46:15;;;;;;;17.35;5.60;;;;;;;29.81;19.52;98797.22;4947406;29;20028;-63
2021/05/18 15:48:41;;;;;;;16.08;5.30;;;;;;;29.78;19.42;98790.41;4948279;29;20031;-64
2021/05/18 15:51:06;;;;;;;20.70;5.30;;;;;;;29.68;19.63;98780.97;4948045;29;20031;-67
2021/05/18 15:53:32;;;;;;;17.52;4.45;;;;;;;29.72;19.65;98785.78;4948060;29;20038;-62
2021/05/18 15:55:58;;;;;;;18.25;5.38;;;;;;;29.75;19.81;98789.94;4948192;29;20332;-62
2021/05/18 15:58:25;;;;;;;20.08;6.00;;;;;;;29.74;19.50;98781.09;4946686;29;20028;-64
2021/05/18 16:00:52;;;;;;;16.27;5.45;;;;;;;29.53;19.93;98757.75;4946896;29;20039;-64
2021/05/18 16:03:18;;;;;;;19.90;5.53;;;;;;;29.64;20.08;98767.16;4947252;29;20042;-63
2021/05/18 16:05:45;;;;;;;19.17;5.43;;;;;;;29.59;19.77;98761.53;4946205;29;20118;-63
2021/05/18 16:11:05;;;;;;;20.25;5.78;;;;;;;29.32;20.08;98707.72;4948047;29;20034;-63
2021/05/18 16:13:32;;;;;;;28.88;7.55;;;;;;;29.40;20.75;98717.47;4947531;28;20039;-64
2021/05/18 16:16:16;;;;;;;16.20;5.45;;;;;;;29.47;20.57;98739.75;4947577;29;20042;-64
2021/05/18 16:18:48;;;;;;;21.88;5.55;;;;;;;29.44;20.62;98748.13;4947386;29;20351;-65
2021/05/18 16:21:17;;;;;;;14.70;5.35;;;;;;;29.18;20.70;98703.09;4938814;29;20083;-63
2021/05/18 16:23:46;;;;;;;18.60;6.05;;;;;;;29.34;20.60;98743.03;4947462;29;20031;-64
2021/05/18 16:26:21;;;;;;;17.70;5.15;;;;;;;29.31;21.07;98740.72;4947011;29;20056;-65
2021/05/18 16:28:46;;;;;;;20.88;5.72;;;;;;;29.35;21.10;98743.88;4943973;29;20174;-63
2021/05/18 16:31:13;;;;;;;17.52;5.40;;;;;;;29.23;21.24;98741.63;4945507;29;20035;-66
2021/05/18 16:33:40;;;;;;;16.20;5.95;;;;;;;29.04;20.96;98728.69;4947515;28;20024;-64
2021/05/18 16:36:07;;;;;;;23.42;5.82;;;;;;;29.04;21.38;98728.69;4946322;29;20074;-64
2021/05/18 16:38:34;;;;;;;19.98;5.40;;;;;;;28.89;21.47;98734.78;4941437;29;20024;-64
2021/05/18 16:41:23;;;;;;;23.92;5.75;;;;;;;28.91;21.72;98738.09;4945356;28;20316;-66
2021/05/18 16:43:49;;;;;;;20.83;5.05;;;;;;;28.94;21.73;98734.25;4938779;29;20030;-64
2021/05/18 16:46:15;;;;;;;19.17;5.80;;;;;;;28.95;21.54;98741.25;4941072;29;20032;-64
2021/05/18 16:48:41;;;;;;;24.17;5.70;;;;;;;28.80;21.18;98732.31;4940841;29;20023;-65
2021/05/18 16:51:08;;;;;;;19.67;5.68;;;;;;;28.72;21.82;98723.38;4951392;29;20032;-65
2021/05/18 16:53:35;;;;;;;18.92;5.68;;;;;;;28.78;21.42;98735.16;4938674;29;20095;-64